createdAt,value
2019-03-20T00:00:54.788Z,1034.68
2019-03-20T00:01:55.027Z,1034.69
2019-03-20T00:02:55.201Z,1034.65
2019-03-20T00:03:54.840Z,1034.7
2019-03-20T00:04:54.791Z,1034.69
2019-03-20T00:05:54.898Z,1034.72
2019-03-20T00:06:54.838Z,1034.72
2019-03-20T00:07:54.914Z,1034.68
2019-03-20T00:08:54.774Z,1034.71
2019-03-20T00:09:55.044Z,1034.71
2019-03-20T00:10:54.991Z,1034.7
2019-03-20T00:11:55.025Z,1034.69
2019-03-20T00:12:54.743Z,1034.71
2019-03-20T00:13:55.008Z,1034.75
2019-03-20T00:14:55.031Z,1034.74
2019-03-20T00:15:55.063Z,1034.71
2019-03-20T00:16:54.729Z,1034.72
2019-03-20T00:17:54.705Z,1034.76
2019-03-20T00:18:54.772Z,1034.73
2019-03-20T00:19:54.741Z,1034.71
2019-03-20T00:20:54.744Z,1034.7
2019-03-20T00:21:54.756Z,1034.69
2019-03-20T00:22:54.765Z,1034.7
2019-03-20T00:23:55.129Z,1034.7
2019-03-20T00:24:54.801Z,1034.69
2019-03-20T00:25:54.815Z,1034.66
2019-03-20T00:26:54.779Z,1034.7
2019-03-20T00:27:54.825Z,1034.69
2019-03-20T00:28:54.890Z,1034.64
2019-03-20T00:29:54.841Z,1034.64
2019-03-20T00:30:54.909Z,1034.61
2019-03-20T00:31:55.017Z,1034.6
2019-03-20T00:32:55.076Z,1034.61
2019-03-20T00:33:54.907Z,1034.62
2019-03-20T00:35:01.619Z,1034.61
2019-03-20T00:35:54.759Z,1034.57
2019-03-20T00:36:54.744Z,1034.57
2019-03-20T00:37:54.836Z,1034.58
2019-03-20T00:38:54.911Z,1034.55
2019-03-20T00:39:54.822Z,1034.58
2019-03-20T00:40:55.060Z,1034.6
2019-03-20T00:41:54.796Z,1034.58
2019-03-20T00:42:54.822Z,1034.6
2019-03-20T00:43:54.834Z,1034.58
2019-03-20T00:44:54.909Z,1034.58
2019-03-20T00:45:54.962Z,1034.54
2019-03-20T00:46:54.939Z,1034.54
2019-03-20T00:47:54.977Z,1034.57
2019-03-20T00:48:54.904Z,1034.6
2019-03-20T00:49:55.013Z,1034.56
2019-03-20T00:50:54.935Z,1034.55
2019-03-20T00:51:55.032Z,1034.54
2019-03-20T00:52:54.708Z,1034.57
2019-03-20T00:53:54.698Z,1034.58
2019-03-20T00:54:54.687Z,1034.57
2019-03-20T00:55:54.795Z,1034.58
2019-03-20T00:56:54.730Z,1034.54
2019-03-20T00:57:54.779Z,1034.54
2019-03-20T00:58:54.761Z,1034.49
2019-03-20T00:59:54.747Z,1034.51
2019-03-20T01:00:54.829Z,1034.51
2019-03-20T01:01:54.970Z,1034.54
2019-03-20T01:02:54.951Z,1034.53
2019-03-20T01:03:54.675Z,1034.55
2019-03-20T01:04:54.858Z,1034.54
2019-03-20T01:05:54.867Z,1034.58
2019-03-20T01:06:54.913Z,1034.57
2019-03-20T01:07:54.912Z,1034.54
2019-03-20T01:08:54.971Z,1034.57
2019-03-20T01:09:54.977Z,1034.57
2019-03-20T01:10:54.706Z,1034.59
2019-03-20T01:11:54.709Z,1034.6
2019-03-20T01:12:54.744Z,1034.58
2019-03-20T01:13:54.730Z,1034.59
2019-03-20T01:14:54.757Z,1034.59
2019-03-20T01:15:54.936Z,1034.63
2019-03-20T01:16:54.753Z,1034.62
2019-03-20T01:17:54.783Z,1034.62
2019-03-20T01:18:54.797Z,1034.63
2019-03-20T01:19:54.820Z,1034.6
2019-03-20T01:20:54.943Z,1034.62
2019-03-20T01:21:54.859Z,1034.58
2019-03-20T01:22:54.872Z,1034.63
2019-03-20T01:23:54.862Z,1034.61
2019-03-20T01:24:54.935Z,1034.62
2019-03-20T01:25:54.909Z,1034.61
2019-03-20T01:26:54.913Z,1034.64
2019-03-20T01:27:55.128Z,1034.63
2019-03-20T01:28:54.673Z,1034.64
2019-03-20T01:29:54.680Z,1034.65
2019-03-20T01:30:54.761Z,1034.67
2019-03-20T01:31:54.858Z,1034.64
2019-03-20T01:32:54.696Z,1034.63
2019-03-20T01:33:55.156Z,1034.65
2019-03-20T01:34:54.727Z,1034.65
2019-03-20T01:35:54.738Z,1034.61
2019-03-20T01:36:54.890Z,1034.62
2019-03-20T01:37:55.938Z,1034.59
2019-03-20T01:38:54.903Z,1034.62
2019-03-20T01:39:54.919Z,1034.59
2019-03-20T01:40:54.884Z,1034.57
2019-03-20T01:41:54.874Z,1034.6
2019-03-20T01:42:54.863Z,1034.58
2019-03-20T01:43:54.860Z,1034.59
2019-03-20T01:44:54.874Z,1034.6
2019-03-20T01:45:54.710Z,1034.64
2019-03-20T01:46:54.723Z,1034.61
2019-03-20T01:47:54.708Z,1034.64
2019-03-20T01:48:54.746Z,1034.61
2019-03-20T01:49:54.845Z,1034.61
2019-03-20T01:50:54.885Z,1034.59
2019-03-20T01:51:54.760Z,1034.59
2019-03-20T01:52:54.814Z,1034.58
2019-03-20T01:53:54.939Z,1034.58
2019-03-20T01:54:54.823Z,1034.57
2019-03-20T01:55:54.904Z,1034.55
2019-03-20T01:56:54.825Z,1034.58
2019-03-20T01:57:54.949Z,1034.54
2019-03-20T01:58:54.872Z,1034.55
2019-03-20T01:59:54.975Z,1034.53
2019-03-20T02:00:54.915Z,1034.52
2019-03-20T02:01:54.899Z,1034.5
2019-03-20T02:02:54.642Z,1034.52
2019-03-20T02:03:54.677Z,1034.51
2019-03-20T02:04:54.669Z,1034.5
2019-03-20T02:05:54.687Z,1034.54
2019-03-20T02:06:54.752Z,1034.48
2019-03-20T04:06:54.736Z,1035.31
2019-03-20T04:07:54.654Z,1035.32
2019-03-20T04:08:54.715Z,1035.33
2019-03-20T04:09:54.709Z,1035.31
2019-03-20T04:11:54.730Z,1035.31
2019-03-20T04:12:54.749Z,1035.31
2019-03-20T04:13:54.734Z,1035.32
2019-03-20T04:14:54.680Z,1035.32
2019-03-20T04:16:54.885Z,1035.3
2019-03-20T04:18:54.908Z,1035.3
2019-03-20T04:20:54.846Z,1035.28
2019-03-20T04:21:55.150Z,1035.31
2019-03-20T04:22:54.876Z,1035.3
2019-03-20T04:23:54.666Z,1035.3
2019-03-20T04:25:54.624Z,1035.33
2019-03-20T04:26:54.617Z,1035.28
2019-03-20T04:28:54.676Z,1035.28
2019-03-20T04:30:54.709Z,1035.3
2019-03-20T04:31:54.685Z,1035.32
2019-03-20T04:32:54.710Z,1035.33
2019-03-20T04:35:54.797Z,1035.36
2019-03-20T04:36:54.780Z,1035.36
2019-03-20T04:37:54.815Z,1035.38
2019-03-20T04:40:54.841Z,1035.34
2019-03-20T04:41:54.636Z,1035.34
2019-03-20T04:42:54.666Z,1035.3
2019-03-20T04:43:54.722Z,1035.31
2019-03-20T04:45:54.774Z,1035.3
2019-03-20T04:47:54.802Z,1035.39
2019-03-20T04:48:54.727Z,1035.34
2019-03-20T04:49:54.726Z,1035.32
2019-03-20T04:50:54.755Z,1035.4
2019-03-20T04:52:54.771Z,1035.38
2019-03-20T04:53:54.793Z,1035.4
2019-03-20T04:54:54.792Z,1035.4
2019-03-20T04:55:54.911Z,1035.42
2019-03-20T04:58:54.593Z,1035.41
2019-03-20T04:59:54.602Z,1035.44
2019-03-20T05:00:54.704Z,1035.42
2019-03-20T05:01:54.622Z,1035.41
2019-03-20T05:03:54.626Z,1035.43
2019-03-20T05:05:54.793Z,1035.45
2019-03-20T05:06:59.614Z,1035.47
2019-03-20T05:07:54.690Z,1035.45
2019-03-20T05:08:55.044Z,1035.44
2019-03-20T05:10:54.763Z,1035.47
2019-03-20T05:11:54.759Z,1035.41
2019-03-20T05:12:54.770Z,1035.46
2019-03-20T05:14:54.806Z,1035.44
2019-03-20T05:16:54.613Z,1035.45
2019-03-20T05:17:54.642Z,1035.46
2019-03-20T05:18:54.641Z,1035.45
2019-03-20T05:20:54.676Z,1035.47
2019-03-20T05:21:54.756Z,1035.44
2019-03-20T05:22:54.712Z,1035.44
2019-03-20T05:23:54.686Z,1035.46
2019-03-20T05:25:54.750Z,1035.48
2019-03-20T05:26:54.845Z,1035.5
2019-03-20T05:27:55.213Z,1035.54
2019-03-20T05:28:54.766Z,1035.59
2019-03-20T05:30:54.869Z,1035.65
2019-03-20T05:31:54.905Z,1035.63
2019-03-20T05:34:54.594Z,1035.63
2019-03-20T05:35:54.632Z,1035.57
2019-03-20T05:37:54.581Z,1035.57
2019-03-20T05:38:54.607Z,1035.59
2019-03-20T05:39:54.657Z,1035.59
2019-03-20T05:40:54.657Z,1035.58
2019-03-20T05:42:54.676Z,1035.57
2019-03-20T05:44:54.796Z,1035.62
2019-03-20T05:45:54.722Z,1035.64
2019-03-20T05:46:54.756Z,1035.63
2019-03-20T05:47:54.908Z,1035.67
2019-03-20T05:49:54.739Z,1035.68
2019-03-20T05:50:54.893Z,1035.69
2019-03-20T05:51:54.852Z,1035.71
2019-03-20T05:53:54.680Z,1035.71
2019-03-20T05:54:54.611Z,1035.78
2019-03-20T05:55:54.607Z,1035.84
2019-03-20T05:56:54.647Z,1035.83
2019-03-20T05:59:54.743Z,1035.91
2019-03-20T06:00:54.704Z,1035.93
2019-03-20T06:03:54.737Z,1036.03
2019-03-20T06:04:54.732Z,1036.06
2019-03-20T06:05:54.746Z,1036.1
2019-03-20T06:06:54.786Z,1036.16
2019-03-20T06:09:54.790Z,1036.25
2019-03-20T06:10:55.085Z,1036.27
2019-03-20T06:12:54.556Z,1036.27
2019-03-20T06:13:54.625Z,1036.27
2019-03-20T06:15:54.574Z,1036.27
2019-03-20T06:16:54.844Z,1036.25
2019-03-20T06:17:54.592Z,1036.26
2019-03-20T06:18:54.653Z,1036.28
2019-03-20T06:20:54.677Z,1036.31
2019-03-20T06:21:54.849Z,1036.35
2019-03-20T06:22:54.702Z,1036.33
2019-03-20T06:23:55.830Z,1036.33
2019-03-20T06:25:54.868Z,1036.35
2019-03-20T06:26:54.817Z,1036.37
2019-03-20T06:28:54.754Z,1036.38
2019-03-20T06:29:54.787Z,1036.37
2019-03-20T06:30:54.832Z,1036.4
2019-03-20T06:32:54.717Z,1036.47
2019-03-20T06:33:54.714Z,1036.46
2019-03-20T06:34:54.639Z,1036.49
2019-03-20T06:35:54.619Z,1036.47
2019-03-20T06:37:54.697Z,1036.46
2019-03-20T06:38:54.756Z,1036.47
2019-03-20T06:39:54.699Z,1036.49
2019-03-20T06:40:54.701Z,1036.51
2019-03-20T06:42:55.626Z,1036.46
2019-03-20T06:43:54.719Z,1036.47
2019-03-20T06:44:54.710Z,1036.51
2019-03-20T06:45:54.831Z,1036.48
2019-03-20T06:47:54.764Z,1036.57
2019-03-20T06:48:54.891Z,1036.54
2019-03-20T06:49:54.795Z,1036.56
2019-03-20T06:50:55.655Z,1036.55
2019-03-20T06:52:54.567Z,1036.62
2019-03-20T06:54:54.956Z,1036.58
2019-03-20T06:55:54.618Z,1036.62
2019-03-20T06:56:54.617Z,1036.6
2019-03-20T06:58:54.718Z,1036.63
2019-03-20T06:59:54.644Z,1036.61
2019-03-20T07:00:54.697Z,1036.67
2019-03-20T07:01:54.672Z,1036.7
2019-03-20T07:04:54.776Z,1036.68
2019-03-20T07:05:54.719Z,1036.69
2019-03-20T07:06:54.741Z,1036.68
2019-03-20T07:07:54.765Z,1036.7
2019-03-20T07:10:54.547Z,1036.68
2019-03-20T07:12:54.665Z,1036.73
2019-03-20T07:13:54.605Z,1036.72
2019-03-20T07:14:54.647Z,1036.77
2019-03-20T07:15:54.684Z,1036.79
2019-03-20T07:18:54.680Z,1036.73
2019-03-20T07:19:54.664Z,1036.72
2019-03-20T07:20:54.718Z,1036.76
2019-03-20T07:21:54.695Z,1036.77
2019-03-20T07:23:54.809Z,1036.78
2019-03-20T07:24:54.837Z,1036.8
2019-03-20T07:25:55.024Z,1036.81
2019-03-20T07:26:54.885Z,1036.79
2019-03-20T07:28:54.565Z,1036.82
2019-03-20T07:30:54.553Z,1036.85
2019-03-20T07:31:55.705Z,1036.84
2019-03-20T07:32:54.743Z,1036.86
2019-03-20T07:33:54.596Z,1036.91
2019-03-20T07:35:54.611Z,1036.92
2019-03-20T07:36:54.775Z,1036.95
2019-03-20T07:37:56.710Z,1036.95
2019-03-20T07:39:54.851Z,1036.93
2019-03-20T07:40:54.766Z,1036.97
2019-03-20T07:41:54.684Z,1036.91
2019-03-20T07:44:55.033Z,1036.91
2019-03-20T07:45:54.763Z,1036.89
2019-03-20T07:46:54.900Z,1036.93
2019-03-20T07:47:54.801Z,1036.92
2019-03-20T07:49:54.647Z,1036.91
2019-03-20T07:50:54.619Z,1036.94
2019-03-20T07:51:54.604Z,1036.91
2019-03-20T07:52:54.596Z,1036.9
2019-03-20T07:54:55.008Z,1036.92
2019-03-20T07:55:54.663Z,1036.91
2019-03-20T07:56:54.750Z,1036.91
2019-03-20T07:57:54.749Z,1036.94
2019-03-20T07:59:54.750Z,1036.9
2019-03-20T08:00:54.737Z,1036.9
2019-03-20T08:02:54.711Z,1036.92
2019-03-20T08:03:54.747Z,1036.95
2019-03-20T08:04:54.762Z,1036.93
2019-03-20T08:05:54.785Z,1036.95
2019-03-20T08:07:54.487Z,1036.94
2019-03-20T08:08:54.513Z,1036.93
2019-03-20T08:09:54.539Z,1036.94
2019-03-20T08:10:54.565Z,1036.97
2019-03-20T08:12:54.571Z,1036.99
2019-03-20T08:14:54.674Z,1037
2019-03-20T08:15:54.713Z,1037.02
2019-03-20T08:16:54.783Z,1037.03
2019-03-20T08:17:54.595Z,1037.03
2019-03-20T08:19:54.708Z,1037.11
2019-03-20T08:20:54.812Z,1037.13
2019-03-20T08:21:54.665Z,1037.14
2019-03-20T08:22:54.692Z,1037.14
2019-03-20T08:24:56.043Z,1037.15
2019-03-20T08:25:54.872Z,1037.1
2019-03-20T08:26:54.848Z,1037.14
2019-03-20T08:28:54.761Z,1037.13
2019-03-20T08:29:54.567Z,1037.1
2019-03-20T08:30:54.639Z,1037.11
2019-03-20T08:31:54.583Z,1037.1
2019-03-20T08:34:54.718Z,1037.1
2019-03-20T08:35:54.602Z,1037.11
2019-03-20T08:36:54.906Z,1037.13
2019-03-20T08:37:54.640Z,1037.12
2019-03-20T08:40:54.689Z,1037.14
2019-03-20T08:41:54.704Z,1037.17
2019-03-20T08:42:55.069Z,1037.17
2019-03-20T08:43:54.734Z,1037.18
2019-03-20T08:45:54.845Z,1037.16
2019-03-20T08:46:54.726Z,1037.15
2019-03-20T08:47:54.870Z,1037.13
2019-03-20T08:48:54.518Z,1037.12
2019-03-20T08:50:54.608Z,1037.11
2019-03-20T08:51:54.622Z,1037.09
2019-03-20T08:53:56.550Z,1037.13
2019-03-20T08:54:54.588Z,1037.17
2019-03-20T08:55:54.560Z,1037.12
2019-03-20T08:56:54.586Z,1037.11
2019-03-20T08:58:54.776Z,1037.1
2019-03-20T08:59:54.682Z,1037.15
2019-03-20T09:00:54.660Z,1037.16
2019-03-20T09:02:55.414Z,1037.12
2019-03-20T09:04:54.875Z,1037.11
2019-03-20T09:05:54.748Z,1037.08
2019-03-20T09:06:54.739Z,1037.09
2019-03-20T09:07:54.892Z,1037.07
2019-03-20T09:09:54.520Z,1037.13
2019-03-20T09:10:54.561Z,1037.14
2019-03-20T09:11:54.578Z,1037.15
2019-03-20T09:12:54.666Z,1037.12
2019-03-20T09:14:54.681Z,1037.16
2019-03-20T09:15:54.625Z,1037.16
2019-03-20T09:16:54.741Z,1037.17
2019-03-20T09:17:54.657Z,1037.16
2019-03-20T09:19:54.661Z,1037.19
2019-03-20T09:20:54.683Z,1037.19
2019-03-20T09:21:54.770Z,1037.16
2019-03-20T09:22:55.170Z,1037.18
2019-03-20T09:24:54.760Z,1037.2
2019-03-20T09:25:54.741Z,1037.19
2019-03-20T09:27:54.487Z,1037.2
2019-03-20T09:28:54.577Z,1037.2
2019-03-20T09:29:54.526Z,1037.2
2019-03-20T09:31:54.559Z,1037.24
2019-03-20T09:32:54.545Z,1037.2
2019-03-20T09:33:55.048Z,1037.2
2019-03-20T09:34:55.018Z,1037.19
2019-03-20T09:36:54.599Z,1037.26
2019-03-20T09:37:54.712Z,1037.29
2019-03-20T09:38:54.723Z,1037.33
2019-03-20T09:39:54.711Z,1037.33
2019-03-20T09:41:54.693Z,1037.34
2019-03-20T09:42:54.828Z,1037.29
2019-03-20T09:43:55.086Z,1037.3
2019-03-20T09:44:54.698Z,1037.29
2019-03-20T09:46:54.731Z,1037.36
2019-03-20T09:48:54.600Z,1037.34
2019-03-20T09:50:54.665Z,1037.28
2019-03-20T09:51:54.891Z,1037.29
2019-03-20T09:52:54.636Z,1037.3
2019-03-20T09:53:54.584Z,1037.29
2019-03-20T09:55:54.595Z,1037.29
2019-03-20T09:56:54.690Z,1037.29
2019-03-20T09:57:54.641Z,1037.31
2019-03-20T09:59:54.662Z,1037.3
2019-03-20T10:00:54.676Z,1037.27
2019-03-20T10:01:54.819Z,1037.28
2019-03-20T10:02:54.795Z,1037.27
2019-03-20T10:04:54.817Z,1037.25
2019-03-20T10:05:54.857Z,1037.24
2019-03-20T10:07:54.534Z,1037.28
2019-03-20T10:08:54.838Z,1037.29
2019-03-20T10:09:54.522Z,1037.31
2019-03-20T10:10:54.528Z,1037.32
2019-03-20T10:12:54.721Z,1037.34
2019-03-20T10:13:54.566Z,1037.33
2019-03-20T10:15:54.592Z,1037.28
2019-03-20T10:16:54.615Z,1037.26
2019-03-20T10:17:54.641Z,1037.22
2019-03-20T10:20:54.759Z,1037.21
2019-03-20T10:21:54.748Z,1037.22
2019-03-20T10:22:54.735Z,1037.22
2019-03-20T10:23:54.762Z,1037.23
2019-03-20T10:25:54.732Z,1037.21
2019-03-20T10:26:54.478Z,1037.25
2019-03-20T10:27:55.006Z,1037.21
2019-03-20T10:28:54.608Z,1037.19
2019-03-20T10:30:54.634Z,1037.19
2019-03-20T10:31:54.617Z,1037.17
2019-03-20T10:32:54.584Z,1037.15
2019-03-20T10:34:54.637Z,1037.16
2019-03-20T10:36:54.655Z,1037.21
2019-03-20T10:37:54.739Z,1037.17
2019-03-20T10:39:07.154Z,1037.24
2019-03-20T10:39:54.687Z,1037.21
2019-03-20T10:42:54.820Z,1037.14
2019-03-20T10:43:54.473Z,1037.13
2019-03-20T10:44:54.471Z,1037.12
2019-03-20T10:46:54.515Z,1037.09
2019-03-20T10:48:56.750Z,1037.1
2019-03-20T10:49:54.659Z,1037.11
2019-03-20T10:50:54.583Z,1037.11
2019-03-20T10:51:54.690Z,1037.09
2019-03-20T10:53:54.610Z,1037.1
2019-03-20T10:54:54.612Z,1037.04
2019-03-20T10:55:54.790Z,1037.05
2019-03-20T10:56:54.714Z,1037.02
2019-03-20T10:58:54.675Z,1037.04
2019-03-20T10:59:54.704Z,1037.07
2019-03-20T11:00:54.702Z,1037.07
2019-03-20T11:02:54.517Z,1037.1
2019-03-20T11:03:54.525Z,1037.09
2019-03-20T11:04:54.504Z,1037.11
2019-03-20T11:05:54.558Z,1037.1
2019-03-20T11:07:54.676Z,1037.16
2019-03-20T11:09:54.672Z,1037.17
2019-03-20T11:10:54.784Z,1037.14
2019-03-20T11:11:54.659Z,1037.1
2019-03-20T11:12:54.668Z,1037.13
2019-03-20T11:14:54.781Z,1037.09
2019-03-20T11:15:54.743Z,1037.14
2019-03-20T11:16:54.710Z,1037.1
2019-03-20T11:17:54.740Z,1037.1
2019-03-20T11:19:56.499Z,1037.08
2019-03-20T11:20:54.477Z,1037.07
2019-03-20T11:22:54.511Z,1037.03
2019-03-20T11:23:54.540Z,1037.01
2019-03-20T11:24:54.510Z,1037
2019-03-20T11:25:54.696Z,1037
2019-03-20T11:27:54.591Z,1036.96
2019-03-20T11:28:54.565Z,1036.96
2019-03-20T11:29:54.581Z,1036.98
2019-03-20T11:30:54.598Z,1036.94
2019-03-20T11:32:55.003Z,1036.92
2019-03-20T11:33:54.749Z,1036.95
2019-03-20T11:34:54.664Z,1036.92
2019-03-20T11:35:54.831Z,1036.96
2019-03-20T11:37:54.463Z,1036.94
2019-03-20T11:38:54.555Z,1036.96
2019-03-20T11:39:54.630Z,1036.94
2019-03-20T11:40:54.517Z,1036.91
2019-03-20T11:42:54.549Z,1036.88
2019-03-20T11:43:54.551Z,1036.88
2019-03-20T11:44:54.601Z,1036.86
2019-03-20T11:45:54.715Z,1036.79
2019-03-20T11:47:54.609Z,1036.79
2019-03-20T11:48:54.620Z,1036.8
2019-03-20T11:49:54.678Z,1036.8
2019-03-20T11:50:54.648Z,1036.78
2019-03-20T11:52:58.235Z,1036.76
2019-03-20T11:53:54.738Z,1036.73
2019-03-20T11:55:54.466Z,1036.7
2019-03-20T11:56:54.500Z,1036.69
2019-03-20T11:57:54.496Z,1036.7
2019-03-20T11:58:54.666Z,1036.69
2019-03-20T12:00:54.584Z,1036.62
2019-03-20T12:01:54.533Z,1036.63
2019-03-20T12:02:54.543Z,1036.61
2019-03-20T12:03:54.737Z,1036.61
2019-03-20T12:05:54.605Z,1036.57
2019-03-20T12:06:54.614Z,1036.6
2019-03-20T12:08:54.722Z,1036.55
2019-03-20T12:10:54.684Z,1036.57
2019-03-20T12:11:54.742Z,1036.51
2019-03-20T12:12:54.501Z,1036.52
2019-03-20T12:13:54.547Z,1036.55
2019-03-20T12:15:54.623Z,1036.5
2019-03-20T12:16:54.514Z,1036.49
2019-03-20T12:17:54.514Z,1036.5
2019-03-20T12:18:54.548Z,1036.51
2019-03-20T12:20:54.554Z,1036.48
2019-03-20T12:21:54.600Z,1036.47
2019-03-20T12:22:54.605Z,1036.48
2019-03-20T12:23:54.594Z,1036.47
2019-03-20T12:25:54.638Z,1036.45
2019-03-20T12:26:54.657Z,1036.47
2019-03-20T12:28:54.802Z,1036.42
2019-03-20T12:29:54.423Z,1036.4
2019-03-20T12:31:54.447Z,1036.37
2019-03-20T12:33:54.498Z,1036.34
2019-03-20T12:35:54.521Z,1036.3
2019-03-20T12:36:56.848Z,1036.29
2019-03-20T12:37:54.910Z,1036.29
2019-03-20T12:38:54.568Z,1036.24
2019-03-20T12:40:54.562Z,1036.16
2019-03-20T12:41:54.591Z,1036.22
2019-03-20T12:42:54.622Z,1036.18
2019-03-20T12:43:54.631Z,1036.14
2019-03-20T12:46:54.676Z,1036.1
2019-03-20T12:47:54.477Z,1036.1
2019-03-20T12:48:54.484Z,1036.08
2019-03-20T12:49:54.621Z,1036.04
2019-03-20T12:51:54.598Z,1036.03
2019-03-20T12:52:54.516Z,1036.06
2019-03-20T12:54:54.633Z,1036.09
2019-03-20T12:55:54.650Z,1036.1
2019-03-20T12:56:54.580Z,1036.06
2019-03-20T12:57:54.602Z,1036.07
2019-03-20T12:59:54.602Z,1036.07
2019-03-20T13:00:54.851Z,1036.04
2019-03-20T13:01:54.739Z,1036.01
2019-03-20T13:03:54.413Z,1036.02
2019-03-20T13:04:54.421Z,1036.02
2019-03-20T13:05:54.532Z,1036.05
2019-03-20T13:06:54.469Z,1036.05
2019-03-20T13:08:54.527Z,1036.03
2019-03-20T13:10:04.042Z,1035.97
2019-03-20T13:10:54.494Z,1036.01
2019-03-20T13:11:54.584Z,1035.97
2019-03-20T13:13:54.567Z,1035.97
2019-03-20T13:14:54.583Z,1035.98
2019-03-20T13:15:54.564Z,1036.01
2019-03-20T13:17:54.610Z,1035.93
2019-03-20T13:18:54.602Z,1035.9
2019-03-20T13:19:54.637Z,1035.87
2019-03-20T13:20:54.613Z,1035.91
2019-03-20T13:22:54.427Z,1035.85
2019-03-20T13:23:54.436Z,1035.89
2019-03-20T13:24:54.488Z,1035.88
2019-03-20T13:26:54.510Z,1035.82
2019-03-20T13:27:54.493Z,1035.83
2019-03-20T13:28:54.639Z,1035.84
2019-03-20T13:29:54.694Z,1035.8
2019-03-20T13:32:54.721Z,1035.77
2019-03-20T13:33:54.586Z,1035.75
2019-03-20T13:34:54.766Z,1035.78
2019-03-20T13:35:54.640Z,1035.73
2019-03-20T13:37:54.762Z,1035.72
2019-03-20T13:38:56.761Z,1035.74
2019-03-20T13:39:54.404Z,1035.72
2019-03-20T13:40:54.577Z,1035.68
2019-03-20T13:42:54.574Z,1035.7
2019-03-20T13:43:54.454Z,1035.68
2019-03-20T13:44:54.453Z,1035.72
2019-03-20T13:45:54.494Z,1035.74
2019-03-20T13:48:54.610Z,1035.73
2019-03-20T13:49:54.521Z,1035.73
2019-03-20T13:51:54.588Z,1035.7
2019-03-20T13:53:54.630Z,1035.68
2019-03-20T13:54:54.614Z,1035.67
2019-03-20T13:55:54.638Z,1035.69
2019-03-20T13:56:54.644Z,1035.69
2019-03-20T13:58:54.449Z,1035.66
2019-03-20T13:59:54.474Z,1035.61
2019-03-20T14:00:54.486Z,1035.59
2019-03-20T14:01:54.501Z,1035.61
2019-03-20T14:03:54.616Z,1035.57
2019-03-20T14:04:54.563Z,1035.56
2019-03-20T14:05:54.558Z,1035.55
2019-03-20T14:06:54.561Z,1035.57
2019-03-20T14:08:54.664Z,1035.58
2019-03-20T14:09:54.597Z,1035.56
2019-03-20T14:10:54.669Z,1035.56
2019-03-20T14:12:54.681Z,1035.48
2019-03-20T14:13:54.637Z,1035.39
2019-03-20T14:14:54.658Z,1035.27
2019-03-20T14:17:54.464Z,1035.47
2019-03-20T14:18:54.446Z,1035.45
2019-03-20T14:19:54.530Z,1035.46
2019-03-20T14:20:54.625Z,1035.43
2019-03-20T14:22:54.527Z,1035.38
2019-03-20T14:23:54.695Z,1035.33
2019-03-20T14:24:54.556Z,1035.36
2019-03-20T14:25:54.976Z,1035.39
2019-03-20T14:27:54.586Z,1035.4
2019-03-20T14:28:54.573Z,1035.36
2019-03-20T14:30:54.595Z,1035.34
2019-03-20T14:31:54.618Z,1035.33
2019-03-20T14:32:54.432Z,1035.33
2019-03-20T14:33:54.437Z,1035.32
2019-03-20T14:36:54.483Z,1035.38
2019-03-20T14:37:55.196Z,1035.35
2019-03-20T14:38:54.612Z,1035.35
2019-03-20T14:39:54.519Z,1035.36
2019-03-20T14:41:54.520Z,1035.4
2019-03-20T14:42:54.594Z,1035.34
2019-03-20T14:43:54.633Z,1035.34
2019-03-20T14:44:54.713Z,1035.34
2019-03-20T14:46:54.920Z,1035.35
2019-03-20T14:48:54.636Z,1035.37
2019-03-20T14:49:54.646Z,1035.41
2019-03-20T14:52:54.525Z,1035.41
2019-03-20T14:53:54.414Z,1035.4
2019-03-20T14:55:54.466Z,1035.45
2019-03-20T14:56:54.435Z,1035.45
2019-03-20T14:57:54.482Z,1035.44
2019-03-20T14:58:54.516Z,1035.43
2019-03-20T15:00:54.532Z,1035.44
2019-03-20T15:02:54.669Z,1035.39
2019-03-20T15:03:54.568Z,1035.35
2019-03-20T15:04:54.562Z,1035.39
2019-03-20T15:05:54.617Z,1035.34
2019-03-20T15:07:54.624Z,1035.33
2019-03-20T15:08:54.506Z,1035.33
2019-03-20T15:09:54.433Z,1035.34
2019-03-20T15:10:54.447Z,1035.31
2019-03-20T15:13:54.590Z,1035.35
2019-03-20T15:14:54.598Z,1035.3
2019-03-20T15:15:54.540Z,1035.32
2019-03-20T15:16:54.600Z,1035.34
2019-03-20T15:18:54.654Z,1035.28
2019-03-20T15:19:54.593Z,1035.3
2019-03-20T15:21:54.583Z,1035.3
2019-03-20T15:22:54.625Z,1035.26
2019-03-20T15:23:54.623Z,1035.28
2019-03-20T15:24:54.659Z,1035.29
2019-03-20T15:26:54.398Z,1035.24
2019-03-20T15:27:54.511Z,1035.28
2019-03-20T15:28:54.530Z,1035.26
2019-03-20T15:29:54.578Z,1035.27
2019-03-20T15:31:54.620Z,1035.26
2019-03-20T15:32:54.446Z,1035.24
2019-03-20T15:33:54.480Z,1035.24
2019-03-20T15:35:54.509Z,1035.25
2019-03-20T15:36:54.510Z,1035.23
2019-03-20T15:37:54.631Z,1035.24
2019-03-20T15:38:54.702Z,1035.27
2019-03-20T15:40:56.643Z,1035.3
2019-03-20T15:42:54.422Z,1035.29
2019-03-20T15:44:02.945Z,1035.32
2019-03-20T15:44:54.565Z,1035.33
2019-03-20T15:45:54.467Z,1035.33
2019-03-20T15:47:54.510Z,1035.38
2019-03-20T15:48:54.584Z,1035.41
2019-03-20T15:49:54.370Z,1035.4
2019-03-20T15:50:54.522Z,1035.43
2019-03-20T15:52:54.703Z,1035.5
2019-03-20T15:53:54.558Z,1035.53
2019-03-20T15:54:54.630Z,1035.55
2019-03-20T15:57:54.348Z,1035.55
2019-03-20T15:58:54.603Z,1035.53
2019-03-20T15:59:54.386Z,1035.54
2019-03-20T16:00:54.386Z,1035.56
2019-03-20T16:03:54.357Z,1035.57
2019-03-20T16:04:54.429Z,1035.54
2019-03-20T16:05:54.460Z,1035.52
2019-03-20T16:06:54.471Z,1035.5
2019-03-20T16:08:57.208Z,1035.43
2019-03-20T16:09:54.465Z,1035.38
2019-03-20T16:11:54.354Z,1035.43
2019-03-20T16:14:54.860Z,1035.44
2019-03-20T16:15:54.579Z,1035.48
2019-03-20T16:16:54.599Z,1035.42
2019-03-20T16:17:54.598Z,1035.45
2019-03-20T16:19:56.557Z,1035.47
2019-03-20T16:20:54.437Z,1035.5
2019-03-20T16:22:54.447Z,1035.43
2019-03-20T16:23:54.467Z,1035.46
2019-03-20T16:24:54.558Z,1035.43
2019-03-20T16:25:54.498Z,1035.45
2019-03-20T16:28:54.517Z,1035.47
2019-03-20T16:29:54.544Z,1035.46
2019-03-20T16:30:54.661Z,1035.48
2019-03-20T16:31:54.710Z,1035.49
2019-03-20T16:33:54.612Z,1035.49
2019-03-20T16:34:54.593Z,1035.49
2019-03-20T16:36:54.538Z,1035.48
2019-03-20T16:37:54.527Z,1035.48
2019-03-20T16:38:54.417Z,1035.45
2019-03-20T16:39:54.413Z,1035.49
2019-03-20T16:41:54.531Z,1035.48
2019-03-20T16:42:54.447Z,1035.47
2019-03-20T16:43:54.478Z,1035.47
2019-03-20T16:45:54.490Z,1035.49
2019-03-20T16:46:54.484Z,1035.48
2019-03-20T16:49:54.597Z,1035.5
2019-03-20T16:50:54.537Z,1035.53
2019-03-20T16:51:54.630Z,1035.54
2019-03-20T16:53:54.456Z,1035.51
2019-03-20T16:54:54.413Z,1035.51
2019-03-20T16:55:54.420Z,1035.5
2019-03-20T16:57:54.717Z,1035.52
2019-03-20T16:59:54.472Z,1035.51
2019-03-20T17:01:54.452Z,1035.53
2019-03-20T17:02:54.578Z,1035.52
2019-03-20T17:03:54.513Z,1035.49
2019-03-20T17:04:54.508Z,1035.5
2019-03-20T17:06:54.585Z,1035.51
2019-03-20T17:07:54.564Z,1035.51
2019-03-20T17:09:54.600Z,1035.56
2019-03-20T17:10:54.594Z,1035.58
2019-03-20T17:11:54.524Z,1035.62
2019-03-20T17:12:54.340Z,1035.63
2019-03-20T17:16:54.386Z,1035.66
2019-03-20T17:17:54.400Z,1035.65
2019-03-20T17:18:55.697Z,1035.64
2019-03-20T17:19:54.558Z,1035.66
2019-03-20T17:22:54.476Z,1035.55
2019-03-20T17:23:54.496Z,1035.61
2019-03-20T17:24:54.592Z,1035.6
2019-03-20T17:26:54.465Z,1035.62
2019-03-20T17:27:54.703Z,1035.62
2019-03-20T17:28:54.537Z,1035.59
2019-03-20T17:29:54.564Z,1035.62
2019-03-20T17:31:54.661Z,1035.63
2019-03-20T17:32:54.368Z,1035.64
2019-03-20T17:33:54.380Z,1035.65
2019-03-20T17:34:54.511Z,1035.63
2019-03-20T17:35:54.416Z,1035.59
2019-03-20T17:37:54.400Z,1035.59
2019-03-20T17:39:54.601Z,1035.58
2019-03-20T17:40:54.815Z,1035.65
2019-03-20T17:41:54.593Z,1035.62
2019-03-20T17:42:54.510Z,1035.67
2019-03-20T17:44:54.358Z,1035.63
2019-03-20T17:45:54.601Z,1035.61
2019-03-20T17:47:54.693Z,1035.66
2019-03-20T17:49:54.720Z,1035.6
2019-03-20T17:50:54.477Z,1035.66